sensor_id;sensor_type;location;lat;lon;timestamp;pressure;altitude;pressure_sealevel;temperature;humidity
61961;BME280;47923;42.506;24.192;2023-02-03T00:00:07;95667.84;;;0.21;79.78
61961;BME280;47923;42.506;24.192;2023-02-03T00:02:33;95271.69;;;-2.44;79.01
61961;BME280;47923;42.506;24.192;2023-02-03T00:04:58;95646.53;;;0.08;79.36
61961;BME280;47923;42.506;24.192;2023-02-03T00:07:24;95345.50;;;-1.90;79.16
61961;BME280;47923;42.506;24.192;2023-02-03T00:09:49;95679.56;;;0.20;79.47
61961;BME280;47923;42.506;24.192;2023-02-03T00:12:15;95537.06;;;-0.70;78.68
61961;BME280;47923;42.506;24.192;2023-02-03T00:14:40;95644.50;;;-0.01;79.41
61961;BME280;47923;42.506;24.192;2023-02-03T00:17:06;95386.03;;;-1.65;79.34
61961;BME280;47923;42.506;24.192;2023-02-03T00:19:31;95671.88;;;0.19;79.75
61961;BME280;47923;42.506;24.192;2023-02-03T00:21:57;95682.78;;;0.17;79.76
61961;BME280;47923;42.506;24.192;2023-02-03T00:24:22;95690.47;;;0.19;80.13
61961;BME280;47923;42.506;24.192;2023-02-03T00:26:48;95468.88;;;-1.12;80.21
61961;BME280;47923;42.506;24.192;2023-02-03T00:29:14;95676.41;;;0.18;79.98
61961;BME280;47923;42.506;24.192;2023-02-03T00:31:39;95671.38;;;0.17;79.87
61961;BME280;47923;42.506;24.192;2023-02-03T00:34:05;95513.38;;;-0.85;79.87
61961;BME280;47923;42.506;24.192;2023-02-03T00:36:31;94868.41;;;-5.10;79.61
61961;BME280;47923;42.506;24.192;2023-02-03T00:38:56;95684.66;;;0.17;80.33
61961;BME280;47923;42.506;24.192;2023-02-03T00:41:22;95545.88;;;-0.74;80.28
61961;BME280;47923;42.506;24.192;2023-02-03T00:43:53;95408.28;;;-1.67;80.25
61961;BME280;47923;42.506;24.192;2023-02-03T00:46:18;95694.78;;;0.15;80.69
61961;BME280;47923;42.506;24.192;2023-02-03T00:48:44;95687.63;;;0.15;80.98
61961;BME280;47923;42.506;24.192;2023-02-03T00:51:09;95697.44;;;0.15;81.19
61961;BME280;47923;42.506;24.192;2023-02-03T00:53:35;95449.41;;;-1.45;81.04
61961;BME280;47923;42.506;24.192;2023-02-03T00:56:00;95700.66;;;0.12;80.91
61961;BME280;47923;42.506;24.192;2023-02-03T00:58:26;95692.94;;;0.15;80.64
61961;BME280;47923;42.506;24.192;2023-02-03T01:00:53;95686.25;;;0.18;80.20
61961;BME280;47923;42.506;24.192;2023-02-03T01:03:19;95692.28;;;0.23;79.88
61961;BME280;47923;42.506;24.192;2023-02-03T01:05:45;95690.91;;;0.26;80.04
61961;BME280;47923;42.506;24.192;2023-02-03T01:08:10;95495.94;;;-1.10;79.88
61961;BME280;47923;42.506;24.192;2023-02-03T01:10:37;95550.50;;;-0.61;79.38
61961;BME280;47923;42.506;24.192;2023-02-03T01:13:02;95704.84;;;0.37;79.01
61961;BME280;47923;42.506;24.192;2023-02-03T01:15:28;95138.25;;;-3.34;78.63
61961;BME280;47923;42.506;24.192;2023-02-03T01:17:53;95143.16;;;-3.22;78.87
61961;BME280;47923;42.506;24.192;2023-02-03T01:20:19;94981.16;;;-4.29;78.36
61961;BME280;47923;42.506;24.192;2023-02-03T01:22:46;95656.97;;;-0.01;78.97
61961;BME280;47923;42.506;24.192;2023-02-03T01:25:11;95680.63;;;0.19;79.13
61961;BME280;47923;42.506;24.192;2023-02-03T01:27:37;95204.78;;;-2.98;79.00
61961;BME280;47923;42.506;24.192;2023-02-03T01:30:03;95701.47;;;0.31;79.59
61961;BME280;47923;42.506;24.192;2023-02-03T01:32:28;95697.75;;;0.32;79.64
61961;BME280;47923;42.506;24.192;2023-02-03T01:34:54;95645.06;;;-0.04;79.88
61961;BME280;47923;42.506;24.192;2023-02-03T01:37:19;95664.50;;;-0.27;80.22
61961;BME280;47923;42.506;24.192;2023-02-03T01:39:45;95710.28;;;0.26;80.34
61961;BME280;47923;42.506;24.192;2023-02-03T01:42:14;95708.13;;;0.28;80.45
61961;BME280;47923;42.506;24.192;2023-02-03T01:44:47;95703.63;;;0.29;80.80
61961;BME280;47923;42.506;24.192;2023-02-03T01:49:55;95705.41;;;0.15;80.70
61961;BME280;47923;42.506;24.192;2023-02-03T01:52:23;95652.75;;;-0.21;81.41
61961;BME280;47923;42.506;24.192;2023-02-03T01:54:51;95626.28;;;-0.31;81.36
61961;BME280;47923;42.506;24.192;2023-02-03T01:57:21;95378.94;;;-1.99;81.26
61961;BME280;47923;42.506;24.192;2023-02-03T01:59:49;95732.06;;;0.28;81.54
61961;BME280;47923;42.506;24.192;2023-02-03T02:02:16;95730.28;;;0.24;81.75
61961;BME280;47923;42.506;24.192;2023-02-03T02:04:49;95734.78;;;0.23;81.73
61961;BME280;47923;42.506;24.192;2023-02-03T02:07:18;95740.91;;;0.24;81.59
61961;BME280;47923;42.506;24.192;2023-02-03T02:09:44;95752.09;;;0.21;81.83
61961;BME280;47923;42.506;24.192;2023-02-03T02:12:10;95389.94;;;-2.11;81.71
61961;BME280;47923;42.506;24.192;2023-02-03T02:14:36;95707.00;;;-0.08;81.80
61961;BME280;47923;42.506;24.192;2023-02-03T02:17:15;95409.44;;;-2.02;82.35
61961;BME280;47923;42.506;24.192;2023-02-03T02:20:05;95749.41;;;0.02;82.69
61961;BME280;47923;42.506;24.192;2023-02-03T02:25:47;95766.41;;;0.01;83.07
61961;BME280;47923;42.506;24.192;2023-02-03T02:36:29;95762.69;;;0.02;82.78
61961;BME280;47923;42.506;24.192;2023-02-03T02:44:24;95726.63;;;-0.28;83.84
61961;BME280;47923;42.506;24.192;2023-02-03T02:47:02;95727.97;;;-0.31;82.98
61961;BME280;47923;42.506;24.192;2023-02-03T02:49:46;95772.81;;;0.00;83.41
61961;BME280;47923;42.506;24.192;2023-02-03T02:52:16;95770.16;;;0.00;83.51
61961;BME280;47923;42.506;24.192;2023-02-03T02:54:45;95716.41;;;-0.40;83.84
61961;BME280;47923;42.506;24.192;2023-02-03T02:57:13;95791.13;;;0.02;83.62
61961;BME280;47923;42.506;24.192;2023-02-03T02:59:41;95468.00;;;-2.08;83.25
61961;BME280;47923;42.506;24.192;2023-02-03T03:02:09;95797.72;;;0.04;83.77
61961;BME280;47923;42.506;24.192;2023-02-03T03:04:35;95802.25;;;0.04;83.72
61961;BME280;47923;42.506;24.192;2023-02-03T03:07:05;95809.13;;;0.05;83.78
61961;BME280;47923;42.506;24.192;2023-02-03T03:09:43;95528.09;;;-1.75;83.90
61961;BME280;47923;42.506;24.192;2023-02-03T03:12:16;95810.22;;;0.04;84.18
61961;BME280;47923;42.506;24.192;2023-02-03T03:14:48;95625.56;;;-1.08;83.55
61961;BME280;47923;42.506;24.192;2023-02-03T03:17:26;95529.69;;;-1.74;83.10
61961;BME280;47923;42.506;24.192;2023-02-03T03:19:55;95781.66;;;-0.10;83.54
61961;BME280;47923;42.506;24.192;2023-02-03T03:22:24;95815.06;;;0.20;82.90
61961;BME280;47923;42.506;24.192;2023-02-03T03:24:59;95817.19;;;0.23;82.62
61961;BME280;47923;42.506;24.192;2023-02-03T03:27:37;95815.59;;;0.22;82.96
61961;BME280;47923;42.506;24.192;2023-02-03T03:30:10;95820.38;;;0.20;82.65
61961;BME280;47923;42.506;24.192;2023-02-03T03:32:39;95817.72;;;0.20;82.55
61961;BME280;47923;42.506;24.192;2023-02-03T03:35:05;95818.81;;;0.19;82.32
61961;BME280;47923;42.506;24.192;2023-02-03T03:37:35;95808.47;;;0.18;82.42
61961;BME280;47923;42.506;24.192;2023-02-03T03:40:11;95743.03;;;-0.21;82.43
61961;BME280;47923;42.506;24.192;2023-02-03T03:42:59;95645.09;;;-0.99;82.47
61961;BME280;47923;42.506;24.192;2023-02-03T03:45:31;95685.38;;;-0.68;82.63
61961;BME280;47923;42.506;24.192;2023-02-03T03:50:40;95827.78;;;-0.01;83.17
61961;BME280;47923;42.506;24.192;2023-02-03T03:53:07;95802.38;;;-0.07;82.92
61961;BME280;47923;42.506;24.192;2023-02-03T03:55:35;95807.22;;;-0.14;83.47
61961;BME280;47923;42.506;24.192;2023-02-03T03:58:07;95820.25;;;-0.17;83.53
61961;BME280;47923;42.506;24.192;2023-02-03T04:00:36;95813.56;;;-0.15;83.28
61961;BME280;47923;42.506;24.192;2023-02-03T04:03:13;95622.91;;;-1.37;82.81
61961;BME280;47923;42.506;24.192;2023-02-03T04:05:41;95818.09;;;-0.15;83.37
61961;BME280;47923;42.506;24.192;2023-02-03T04:08:06;95586.94;;;-1.49;82.58
61961;BME280;47923;42.506;24.192;2023-02-03T04:10:35;95193.66;;;-4.07;82.66
61961;BME280;47923;42.506;24.192;2023-02-03T04:13:02;95772.78;;;-0.24;82.45
61961;BME280;47923;42.506;24.192;2023-02-03T04:15:32;95758.44;;;-0.52;82.44
61961;BME280;47923;42.506;24.192;2023-02-03T04:17:58;95763.56;;;-0.32;83.10
61961;BME280;47923;42.506;24.192;2023-02-03T04:20:26;95745.84;;;-0.36;82.98
61961;BME280;47923;42.506;24.192;2023-02-03T04:22:51;95219.44;;;-3.89;82.47
61961;BME280;47923;42.506;24.192;2023-02-03T04:25:17;95743.22;;;-0.41;83.17
61961;BME280;47923;42.506;24.192;2023-02-03T04:27:42;95583.09;;;-1.32;83.04
61961;BME280;47923;42.506;24.192;2023-02-03T04:30:08;95730.38;;;-0.29;82.23
61961;BME280;47923;42.506;24.192;2023-02-03T04:32:34;95579.59;;;-1.28;81.62
61961;BME280;47923;42.506;24.192;2023-02-03T04:35:01;95744.09;;;-0.22;82.37
61961;BME280;47923;42.506;24.192;2023-02-03T04:37:27;95730.09;;;-0.28;82.09
61961;BME280;47923;42.506;24.192;2023-02-03T04:39:53;95754.47;;;-0.25;82.28
61961;BME280;47923;42.506;24.192;2023-02-03T04:42:19;95683.47;;;-0.63;82.61
61961;BME280;47923;42.506;24.192;2023-02-03T04:44:45;95730.03;;;-0.51;82.44
61961;BME280;47923;42.506;24.192;2023-02-03T04:47:10;95737.03;;;-0.61;82.73
61961;BME280;47923;42.506;24.192;2023-02-03T04:49:36;95761.06;;;-0.47;83.13
61961;BME280;47923;42.506;24.192;2023-02-03T04:52:01;95736.69;;;-0.78;83.24
61961;BME280;47923;42.506;24.192;2023-02-03T04:54:27;95766.81;;;-0.64;82.93
61961;BME280;47923;42.506;24.192;2023-02-03T04:56:52;95623.53;;;-1.51;82.59
61961;BME280;47923;42.506;24.192;2023-02-03T04:59:18;95639.03;;;-1.34;82.13
61961;BME280;47923;42.506;24.192;2023-02-03T05:01:43;95306.63;;;-3.50;81.67
61961;BME280;47923;42.506;24.192;2023-02-03T05:04:09;95666.00;;;-1.27;82.07
61961;BME280;47923;42.506;24.192;2023-02-03T05:06:34;95483.41;;;-2.55;81.46
61961;BME280;47923;42.506;24.192;2023-02-03T05:09:00;95792.38;;;-0.78;81.86
61961;BME280;47923;42.506;24.192;2023-02-03T05:11:25;95778.63;;;-0.80;81.64
61961;BME280;47923;42.506;24.192;2023-02-03T05:13:52;95785.63;;;-0.94;81.88
61961;BME280;47923;42.506;24.192;2023-02-03T05:16:17;95777.50;;;-1.08;83.05
61961;BME280;47923;42.506;24.192;2023-02-03T05:18:43;95504.22;;;-2.87;82.53
61961;BME280;47923;42.506;24.192;2023-02-03T05:21:08;95779.88;;;-1.06;82.45
61961;BME280;47923;42.506;24.192;2023-02-03T05:23:34;95760.06;;;-1.19;82.06
61961;BME280;47923;42.506;24.192;2023-02-03T05:25:59;95036.91;;;-5.70;81.82
61961;BME280;47923;42.506;24.192;2023-02-03T05:28:25;95778.66;;;-0.85;81.94
61961;BME280;47923;42.506;24.192;2023-02-03T05:30:50;95711.56;;;-1.20;81.69
61961;BME280;47923;42.506;24.192;2023-02-03T05:33:16;95787.38;;;-0.79;81.15
61961;BME280;47923;42.506;24.192;2023-02-03T05:35:41;95703.72;;;-1.35;81.24
61961;BME280;47923;42.506;24.192;2023-02-03T05:38:07;95588.28;;;-2.25;81.67
61961;BME280;47923;42.506;24.192;2023-02-03T05:40:32;95686.53;;;-1.43;81.06
61961;BME280;47923;42.506;24.192;2023-02-03T05:43:16;95799.53;;;-0.73;81.52
61961;BME280;47923;42.506;24.192;2023-02-03T05:45:42;95649.69;;;-1.78;81.10
61961;BME280;47923;42.506;24.192;2023-02-03T05:48:08;95774.41;;;-0.86;80.23
61961;BME280;47923;42.506;24.192;2023-02-03T05:50:34;95831.97;;;-0.52;80.10
61961;BME280;47923;42.506;24.192;2023-02-03T05:53:01;95639.47;;;-1.56;80.39
61961;BME280;47923;42.506;24.192;2023-02-03T05:55:27;95831.47;;;-0.25;79.44
61961;BME280;47923;42.506;24.192;2023-02-03T05:57:53;95829.25;;;-0.13;79.03
61961;BME280;47923;42.506;24.192;2023-02-03T06:00:19;95729.47;;;-0.72;78.64
61961;BME280;47923;42.506;24.192;2023-02-03T06:02:53;95841.72;;;0.15;78.53
61961;BME280;47923;42.506;24.192;2023-02-03T06:05:19;95663.56;;;-0.89;77.85
61961;BME280;47923;42.506;24.192;2023-02-03T06:07:45;95847.69;;;0.50;76.96
61961;BME280;47923;42.506;24.192;2023-02-03T06:10:11;95842.53;;;0.35;76.38
61961;BME280;47923;42.506;24.192;2023-02-03T06:12:37;95862.66;;;0.65;76.29
61961;BME280;47923;42.506;24.192;2023-02-03T06:15:03;95720.88;;;-0.35;75.95
61961;BME280;47923;42.506;24.192;2023-02-03T06:17:28;95848.88;;;0.39;75.99
61961;BME280;47923;42.506;24.192;2023-02-03T06:19:54;95748.09;;;-0.24;76.11
61961;BME280;47923;42.506;24.192;2023-02-03T06:22:19;95903.06;;;0.67;75.86
61961;BME280;47923;42.506;24.192;2023-02-03T06:24:45;95895.25;;;0.75;75.74
61961;BME280;47923;42.506;24.192;2023-02-03T06:27:12;95892.00;;;0.78;75.15
61961;BME280;47923;42.506;24.192;2023-02-03T06:29:38;95894.91;;;0.82;74.44
61961;BME280;47923;42.506;24.192;2023-02-03T06:32:03;95742.78;;;-0.24;74.37
61961;BME280;47923;42.506;24.192;2023-02-03T06:34:29;95748.50;;;-0.12;74.61
61961;BME280;47923;42.506;24.192;2023-02-03T06:36:55;95901.13;;;1.15;73.82
61961;BME280;47923;42.506;24.192;2023-02-03T06:39:20;95451.81;;;-1.25;72.64
61961;BME280;47923;42.506;24.192;2023-02-03T06:41:45;95683.81;;;0.59;70.49
61961;BME280;47923;42.506;24.192;2023-02-03T06:44:11;95898.09;;;2.38;69.60
61961;BME280;47923;42.506;24.192;2023-02-03T06:46:36;95905.88;;;3.31;66.45
61961;BME280;47923;42.506;24.192;2023-02-03T06:49:02;95765.63;;;2.61;63.06
61961;BME280;47923;42.506;24.192;2023-02-03T06:51:27;95925.44;;;3.26;64.16
61961;BME280;47923;42.506;24.192;2023-02-03T06:53:52;95368.06;;;-0.69;64.78
61961;BME280;47923;42.506;24.192;2023-02-03T06:56:18;95905.31;;;2.79;65.37
61961;BME280;47923;42.506;24.192;2023-02-03T06:58:43;95943.06;;;2.86;66.02
61961;BME280;47923;42.506;24.192;2023-02-03T07:01:09;95870.44;;;2.48;65.20
61961;BME280;47923;42.506;24.192;2023-02-03T07:03:35;95957.31;;;2.82;65.99
61961;BME280;47923;42.506;24.192;2023-02-03T07:06:00;95941.31;;;2.82;66.12
61961;BME280;47923;42.506;24.192;2023-02-03T07:08:25;95806.59;;;1.83;65.68
61961;BME280;47923;42.506;24.192;2023-02-03T07:10:54;95754.59;;;1.72;65.27
61961;BME280;47923;42.506;24.192;2023-02-03T07:13:19;95648.97;;;1.07;64.83
61961;BME280;47923;42.506;24.192;2023-02-03T07:15:45;95820.47;;;1.99;65.62
61961;BME280;47923;42.506;24.192;2023-02-03T07:18:10;95812.91;;;1.73;66.15
61961;BME280;47923;42.506;24.192;2023-02-03T07:20:36;95874.16;;;1.73;66.53
61961;BME280;47923;42.506;24.192;2023-02-03T07:23:01;95842.41;;;1.44;67.90
61961;BME280;47923;42.506;24.192;2023-02-03T07:25:27;95949.72;;;1.96;67.85
61961;BME280;47923;42.506;24.192;2023-02-03T07:27:52;95812.72;;;0.99;68.77
61961;BME280;47923;42.506;24.192;2023-02-03T07:30:18;95946.31;;;1.77;69.24
61961;BME280;47923;42.506;24.192;2023-02-03T07:32:48;95981.38;;;1.84;68.89
61961;BME280;47923;42.506;24.192;2023-02-03T07:35:14;95988.28;;;1.85;69.71
61961;BME280;47923;42.506;24.192;2023-02-03T07:37:40;95982.38;;;1.88;69.48
61961;BME280;47923;42.506;24.192;2023-02-03T07:40:06;95982.38;;;1.88;69.45
61961;BME280;47923;42.506;24.192;2023-02-03T07:42:31;95912.72;;;1.43;69.78
61961;BME280;47923;42.506;24.192;2023-02-03T07:44:57;95565.88;;;-0.82;69.10
61961;BME280;47923;42.506;24.192;2023-02-03T07:47:22;95977.19;;;1.78;69.84
61961;BME280;47923;42.506;24.192;2023-02-03T07:49:47;95979.44;;;1.71;69.77
61961;BME280;47923;42.506;24.192;2023-02-03T07:52:13;95978.41;;;1.66;69.89
61961;BME280;47923;42.506;24.192;2023-02-03T07:54:38;95877.72;;;0.93;70.42
61961;BME280;47923;42.506;24.192;2023-02-03T07:57:04;95889.59;;;1.01;70.44
61961;BME280;47923;42.506;24.192;2023-02-03T07:59:29;95929.03;;;1.36;70.23
61961;BME280;47923;42.506;24.192;2023-02-03T08:01:55;95866.75;;;1.00;70.23
61961;BME280;47923;42.506;24.192;2023-02-03T08:04:21;95987.06;;;1.77;70.20
61961;BME280;47923;42.506;24.192;2023-02-03T08:06:47;95951.34;;;1.59;69.62
61961;BME280;47923;42.506;24.192;2023-02-03T08:09:12;95908.69;;;1.27;69.19
61961;BME280;47923;42.506;24.192;2023-02-03T08:11:38;96007.00;;;1.80;68.48
61961;BME280;47923;42.506;24.192;2023-02-03T08:14:03;95786.88;;;0.43;68.76
61961;BME280;47923;42.506;24.192;2023-02-03T08:16:29;96003.19;;;1.86;69.03
61961;BME280;47923;42.506;24.192;2023-02-03T08:18:54;96012.69;;;1.73;68.65
61961;BME280;47923;42.506;24.192;2023-02-03T08:21:19;96019.47;;;1.84;68.64
61961;BME280;47923;42.506;24.192;2023-02-03T08:23:45;96019.47;;;1.84;68.74
61961;BME280;47923;42.506;24.192;2023-02-03T08:26:10;96023.78;;;1.80;68.64
61961;BME280;47923;42.506;24.192;2023-02-03T08:28:36;96020.38;;;1.75;68.35
61961;BME280;47923;42.506;24.192;2023-02-03T08:31:08;95849.38;;;0.65;68.83
61961;BME280;47923;42.506;24.192;2023-02-03T08:33:33;95872.25;;;0.85;68.61
61961;BME280;47923;42.506;24.192;2023-02-03T08:35:59;95993.16;;;1.59;68.34
61961;BME280;47923;42.506;24.192;2023-02-03T08:38:25;95952.28;;;1.31;67.98
61961;BME280;47923;42.506;24.192;2023-02-03T08:40:50;96012.75;;;1.87;68.21
61961;BME280;47923;42.506;24.192;2023-02-03T08:43:16;95835.06;;;0.79;67.73
61961;BME280;47923;42.506;24.192;2023-02-03T08:45:41;96018.94;;;1.82;68.59
61961;BME280;47923;42.506;24.192;2023-02-03T08:48:07;95957.38;;;1.46;68.73
61961;BME280;47923;42.506;24.192;2023-02-03T08:50:32;95902.00;;;1.10;67.90
61961;BME280;47923;42.506;24.192;2023-02-03T08:52:58;95791.69;;;0.41;68.49
61961;BME280;47923;42.506;24.192;2023-02-03T08:55:23;95668.00;;;-0.32;68.47
61961;BME280;47923;42.506;24.192;2023-02-03T08:57:49;95994.34;;;1.72;68.63
61961;BME280;47923;42.506;24.192;2023-02-03T09:00:15;95813.75;;;0.85;68.20
61961;BME280;47923;42.506;24.192;2023-02-03T09:02:40;96017.63;;;2.36;67.40
61961;BME280;47923;42.506;24.192;2023-02-03T09:05:06;95869.50;;;1.65;65.75
61961;BME280;47923;42.506;24.192;2023-02-03T09:07:31;95647.94;;;0.57;65.65
61961;BME280;47923;42.506;24.192;2023-02-03T09:09:57;95929.81;;;2.54;64.76
61961;BME280;47923;42.506;24.192;2023-02-03T09:12:22;95925.69;;;2.75;63.84
61961;BME280;47923;42.506;24.192;2023-02-03T09:14:48;96055.81;;;4.91;58.72
61961;BME280;47923;42.506;24.192;2023-02-03T09:17:13;96030.47;;;5.94;55.82
61961;BME280;47923;42.506;24.192;2023-02-03T09:19:39;95981.72;;;5.66;54.00
61961;BME280;47923;42.506;24.192;2023-02-03T09:22:07;96003.44;;;5.56;53.05
61961;BME280;47923;42.506;24.192;2023-02-03T09:24:35;95601.44;;;2.77;53.62
61961;BME280;47923;42.506;24.192;2023-02-03T09:27:01;96026.28;;;5.53;53.48
61961;BME280;47923;42.506;24.192;2023-02-03T09:29:26;95961.66;;;5.64;52.76
61961;BME280;47923;42.506;24.192;2023-02-03T09:31:52;96028.63;;;6.47;51.62
61961;BME280;47923;42.506;24.192;2023-02-03T09:34:18;96020.97;;;6.75;49.82
61961;BME280;47923;42.506;24.192;2023-02-03T09:36:47;96028.59;;;6.38;50.26
61961;BME280;47923;42.506;24.192;2023-02-03T09:39:13;96018.78;;;5.81;52.82
61961;BME280;47923;42.506;24.192;2023-02-03T09:46:50;96018.28;;;5.62;54.23
61961;BME280;47923;42.506;24.192;2023-02-03T09:49:26;96012.53;;;5.38;53.75
61961;BME280;47923;42.506;24.192;2023-02-03T09:52:08;96013.59;;;5.28;54.17
61961;BME280;47923;42.506;24.192;2023-02-03T09:57:05;95997.38;;;5.33;54.33
61961;BME280;47923;42.506;24.192;2023-02-03T09:59:37;96002.31;;;5.57;54.06
61961;BME280;47923;42.506;24.192;2023-02-03T10:02:40;96007.66;;;5.48;53.29
61961;BME280;47923;42.506;24.192;2023-02-03T10:05:19;95993.47;;;5.39;53.68
61961;BME280;47923;42.506;24.192;2023-02-03T10:18:08;95974.09;;;10.24;39.36
61961;BME280;47923;42.506;24.192;2023-02-03T10:20:44;95981.41;;;9.34;39.70
61961;BME280;47923;42.506;24.192;2023-02-03T10:23:17;95976.34;;;9.21;41.41
61961;BME280;47923;42.506;24.192;2023-02-03T10:25:50;95926.38;;;7.99;42.76
61961;BME280;47923;42.506;24.192;2023-02-03T10:28:22;95254.47;;;3.00;43.06
61961;BME280;47923;42.506;24.192;2023-02-03T10:30:57;95783.44;;;6.43;43.89
61961;BME280;47923;42.506;24.192;2023-02-03T10:33:28;95974.03;;;7.78;43.75
61961;BME280;47923;42.506;24.192;2023-02-03T10:40:56;95883.88;;;10.57;37.73
61961;BME280;47923;42.506;24.192;2023-02-03T10:43:22;95920.78;;;12.56;35.82
61961;BME280;47923;42.506;24.192;2023-02-03T10:46:06;95733.09;;;11.32;32.80
61961;BME280;47923;42.506;24.192;2023-02-03T10:48:31;95753.56;;;9.84;35.28
61961;BME280;47923;42.506;24.192;2023-02-03T10:50:57;95947.25;;;10.43;36.05
61961;BME280;47923;42.506;24.192;2023-02-03T10:53:25;95951.75;;;9.99;36.34
61961;BME280;47923;42.506;24.192;2023-02-03T10:56:07;95950.72;;;10.44;34.44
61961;BME280;47923;42.506;24.192;2023-02-03T10:58:36;95675.84;;;7.89;34.81
61961;BME280;47923;42.506;24.192;2023-02-03T11:01:11;95949.84;;;8.53;37.55
61961;BME280;47923;42.506;24.192;2023-02-03T11:03:40;95940.69;;;7.70;38.95
61961;BME280;47923;42.506;24.192;2023-02-03T11:06:15;95943.44;;;7.62;41.16
61961;BME280;47923;42.506;24.192;2023-02-03T11:08:47;95918.13;;;7.63;40.57
61961;BME280;47923;42.506;24.192;2023-02-03T11:14:10;95730.34;;;6.48;40.82
61961;BME280;47923;42.506;24.192;2023-02-03T11:16:37;95922.19;;;7.27;41.17
61961;BME280;47923;42.506;24.192;2023-02-03T11:19:04;95936.81;;;6.71;42.45
61961;BME280;47923;42.506;24.192;2023-02-03T11:24:11;95808.25;;;5.06;44.44
61961;BME280;47923;42.506;24.192;2023-02-03T11:26:45;95357.03;;;1.88;45.77
61961;BME280;47923;42.506;24.192;2023-02-03T11:29:23;95819.28;;;5.13;46.02
61961;BME280;47923;42.506;24.192;2023-02-03T11:31:51;95923.25;;;7.05;43.36
61961;BME280;47923;42.506;24.192;2023-02-03T11:34:37;95839.63;;;7.69;40.64
61961;BME280;47923;42.506;24.192;2023-02-03T11:45:36;95929.06;;;11.19;33.87
61961;BME280;47923;42.506;24.192;2023-02-03T11:59:37;95893.63;;;10.17;35.31
61961;BME280;47923;42.506;24.192;2023-02-03T12:15:46;95902.81;;;7.13;39.43
61961;BME280;47923;42.506;24.192;2023-02-03T12:18:30;95906.97;;;7.31;40.02
61961;BME280;47923;42.506;24.192;2023-02-03T12:26:27;95897.19;;;7.27;40.17
61961;BME280;47923;42.506;24.192;2023-02-03T12:29:10;95905.53;;;7.04;39.68
61961;BME280;47923;42.506;24.192;2023-02-03T12:31:43;95906.53;;;6.53;41.39
61961;BME280;47923;42.506;24.192;2023-02-03T12:34:33;95790.00;;;5.25;43.31
61961;BME280;47923;42.506;24.192;2023-02-03T12:39:42;95913.91;;;5.83;42.92
61961;BME280;47923;42.506;24.192;2023-02-03T12:44:45;95928.09;;;5.66;41.92
61961;BME280;47923;42.506;24.192;2023-02-03T12:47:27;95919.28;;;5.66;41.89
61961;BME280;47923;42.506;24.192;2023-02-03T12:49:58;95910.91;;;5.59;41.04
61961;BME280;47923;42.506;24.192;2023-02-03T12:52:39;95898.75;;;5.52;41.03
61961;BME280;47923;42.506;24.192;2023-02-03T12:56:02;95901.72;;;5.42;40.67
61961;BME280;47923;42.506;24.192;2023-02-03T12:58:05;95908.03;;;5.38;41.41
61961;BME280;47923;42.506;24.192;2023-02-03T13:00:57;95632.06;;;3.73;39.74
61961;BME280;47923;42.506;24.192;2023-02-03T13:03:35;95906.94;;;5.30;40.21
61961;BME280;47923;42.506;24.192;2023-02-03T13:06:15;95856.28;;;4.94;41.03
61961;BME280;47923;42.506;24.192;2023-02-03T13:09:05;95894.97;;;5.62;40.97
61961;BME280;47923;42.506;24.192;2023-02-03T13:11:51;95890.22;;;5.76;41.02
61961;BME280;47923;42.506;24.192;2023-02-03T13:17:06;95887.69;;;5.80;40.33
61961;BME280;47923;42.506;24.192;2023-02-03T13:19:48;95881.84;;;5.87;41.54
61961;BME280;47923;42.506;24.192;2023-02-03T13:22:16;95856.94;;;5.95;41.77
61961;BME280;47923;42.506;24.192;2023-02-03T13:24:46;95871.13;;;6.13;40.24
61961;BME280;47923;42.506;24.192;2023-02-03T13:38:19;95865.31;;;6.02;40.02
61961;BME280;47923;42.506;24.192;2023-02-03T13:43:44;95786.22;;;5.44;39.16
61961;BME280;47923;42.506;24.192;2023-02-03T13:46:28;95895.47;;;5.73;39.07
61961;BME280;47923;42.506;24.192;2023-02-03T13:48:57;95555.63;;;3.55;39.55
61961;BME280;47923;42.506;24.192;2023-02-03T13:51:44;95879.50;;;5.50;39.27
61961;BME280;47923;42.506;24.192;2023-02-03T13:54:20;95884.53;;;5.35;40.49
61961;BME280;47923;42.506;24.192;2023-02-03T13:56:58;95682.16;;;3.99;39.44
61961;BME280;47923;42.506;24.192;2023-02-03T14:07:34;95766.28;;;4.41;37.55
61961;BME280;47923;42.506;24.192;2023-02-03T14:23:38;95908.22;;;4.84;39.94
61961;BME280;47923;42.506;24.192;2023-02-03T14:25:50;95876.97;;;4.62;40.35
61961;BME280;47923;42.506;24.192;2023-02-03T14:28:22;95910.53;;;4.68;39.31
61961;BME280;47923;42.506;24.192;2023-02-03T14:33:55;95914.41;;;4.23;41.00
61961;BME280;47923;42.506;24.192;2023-02-03T14:38:55;95901.22;;;4.04;41.32
61961;BME280;47923;42.506;24.192;2023-02-03T14:41:44;95903.97;;;3.90;41.99
61961;BME280;47923;42.506;24.192;2023-02-03T14:49:47;95908.38;;;3.50;43.04
61961;BME280;47923;42.506;24.192;2023-02-03T14:55:24;95911.50;;;3.16;43.45
61961;BME280;47923;42.506;24.192;2023-02-03T14:58:02;95917.06;;;3.05;44.09
61961;BME280;47923;42.506;24.192;2023-02-03T15:00:33;95911.94;;;2.95;44.25
61961;BME280;47923;42.506;24.192;2023-02-03T15:07:56;95910.75;;;2.60;45.31
61961;BME280;47923;42.506;24.192;2023-02-03T15:10:29;95903.53;;;2.47;46.31
61961;BME280;47923;42.506;24.192;2023-02-03T15:13:04;95924.28;;;2.36;47.23
61961;BME280;47923;42.506;24.192;2023-02-03T15:15:40;95912.50;;;2.24;47.60
61961;BME280;47923;42.506;24.192;2023-02-03T15:18:34;95857.94;;;1.88;47.00
61961;BME280;47923;42.506;24.192;2023-02-03T15:21:05;95900.13;;;2.00;48.32
61961;BME280;47923;42.506;24.192;2023-02-03T15:23:39;95896.91;;;1.84;48.04
61961;BME280;47923;42.506;24.192;2023-02-03T15:26:21;95903.69;;;1.77;48.62
61961;BME280;47923;42.506;24.192;2023-02-03T15:28:59;95876.66;;;1.51;48.90
61961;BME280;47923;42.506;24.192;2023-02-03T15:31:36;95891.41;;;1.62;49.69
61961;BME280;47923;42.506;24.192;2023-02-03T15:34:10;95832.22;;;1.14;49.07
61961;BME280;47923;42.506;24.192;2023-02-03T15:36:44;95603.81;;;-0.39;49.55
61961;BME280;47923;42.506;24.192;2023-02-03T15:39:21;95370.47;;;-1.96;50.29